Andover, SD

1:17 AM CDT on August 21, 2014 (GMT -0500)
KSDGROTO1 | Change Station
CLOSE
Current Station
Personal Weather Station
Location: Groton, SD
Elevation: 1295 ft
Nearby Weather Stations

Elev 1295 ft 45.45 °N, 98.10 °W | Updated 3 minutes ago

Heavy Thunderstorms and Rain
Heavy Thunderstorm Rain Mist
72.3 °F
Feels Like 71 °F
N
11.0
Wind Variable Wind from West
Gusts 25.0 mph

Today
High -- | Low -- °F
--% Chance of Precip.
Yesterday
High -- | Low -- °F
Precip. -- in
6:39 AM 8:28 PM
Waning Crescent, 16% visible
Pressure 29.75 in
Visibility 1.0 miles
Clouds Few 500 ft
Overcast 2200 ft
Heat Index 71 °F
Dew Point 68 °F
Humidity 86%
Rainfall 0.03 in
Snow Depth Not available.
UV 0 out of 12
Pollen 9.90 out of 12
Air Quality Not available.
Flu Activity Not available.
SPECI KABR 210609Z AUTO 05008KT 1SM +TSRA BR FEW005 OVC022 18/18 A2975 RMK AO2 LTG DSNT ALQDS P0064 T01830183

More Conditions Fewer Conditions

Pressure 29.75 in
Visibility 1.0 miles
Clouds Few 500 ft
Overcast 2200 ft
Heat Index 71 °F
Dew Point 68 °F
Humidity 86%
Rainfall 0.03 in
Snow Depth Not available.
UV 0 out of 12
Pollen 9.90 out of 12
Air Quality Not available.
Flu Activity Not available.
SPECI KABR 210609Z AUTO 05008KT 1SM +TSRA BR FEW005 OVC022 18/18 A2975 RMK AO2 LTG DSNT ALQDS P0064 T01830183

More Conditions Fewer Conditions

10-Day Weather Forecast

Almanac

Astronomy

Aug. 21, 2014 Rise Set
Actual Time 6:39 AM CDT 8:28 PM CDT
Civil Twilight 6:08 AM CDT 9:00 PM CDT
Nautical Twilight 5:29 AM CDT 9:38 PM CDT
Astronomical Twilight 4:47 AM CDT 10:20 PM CDT
Moon 3:06 AM CDT 6:02 PM CDT
Length of Visible Light 14h 52m
Length of Day
13h 49m
Tomorrow will be 2m 56s shorter.
Waning Crescent, 16% of the Moon is Illuminated
Today
Waning Crescent
Aug 25
New
Sep 2
First Quarter
Sep 8
Full
Sep 15
Last Quarter

Today's Extremes

State Highs State Lows

Community

WunderPhotos

Upload Photos

1,745,858 photos uploaded!

Nearby

Snow Depth

Station Depth Elevation
Blind Park 0 in 6890 ft

Earthquake Activity

City Distance Mag. Time & Date
No recent earthquake activity has been reported nearby.
Minimum magnitude displayed is 2.5.

Coastal Water Temperatures

Place Temperature
No Stations Reporting

Nearby Weather Stations